sensor_id;sensor_type;location;lat;lon;timestamp;P1;durP1;ratioP1;P2;durP2;ratioP2
26908;SDS011;14477;51.038;4.588;2023-09-12T00:00:45;3.37;;;2.00;;
26908;SDS011;14477;51.038;4.588;2023-09-12T00:03:11;2.80;;;2.10;;
26908;SDS011;14477;51.038;4.588;2023-09-12T00:05:37;2.72;;;2.05;;
26908;SDS011;14477;51.038;4.588;2023-09-12T00:08:02;3.10;;;2.00;;
26908;SDS011;14477;51.038;4.588;2023-09-12T00:10:29;3.38;;;2.15;;
26908;SDS011;14477;51.038;4.588;2023-09-12T00:12:55;3.53;;;2.20;;
26908;SDS011;14477;51.038;4.588;2023-09-12T00:15:21;3.07;;;2.10;;
26908;SDS011;14477;51.038;4.588;2023-09-12T00:17:46;3.45;;;2.10;;
26908;SDS011;14477;51.038;4.588;2023-09-12T00:20:14;3.35;;;2.05;;
26908;SDS011;14477;51.038;4.588;2023-09-12T00:22:40;3.13;;;2.20;;
26908;SDS011;14477;51.038;4.588;2023-09-12T00:25:05;3.60;;;1.95;;
26908;SDS011;14477;51.038;4.588;2023-09-12T00:27:31;3.83;;;2.13;;
26908;SDS011;14477;51.038;4.588;2023-09-12T00:29:57;2.90;;;2.00;;
26908;SDS011;14477;51.038;4.588;2023-09-12T00:32:23;3.45;;;2.28;;
26908;SDS011;14477;51.038;4.588;2023-09-12T00:34:49;3.40;;;2.27;;
26908;SDS011;14477;51.038;4.588;2023-09-12T00:37:14;2.97;;;2.20;;
26908;SDS011;14477;51.038;4.588;2023-09-12T00:39:40;3.30;;;2.10;;
26908;SDS011;14477;51.038;4.588;2023-09-12T00:42:06;3.45;;;2.20;;
26908;SDS011;14477;51.038;4.588;2023-09-12T00:44:32;3.22;;;2.20;;
26908;SDS011;14477;51.038;4.588;2023-09-12T00:46:58;2.97;;;2.20;;
26908;SDS011;14477;51.038;4.588;2023-09-12T00:49:26;6.07;;;2.35;;
26908;SDS011;14477;51.038;4.588;2023-09-12T00:51:54;3.85;;;2.45;;
26908;SDS011;14477;51.038;4.588;2023-09-12T00:54:21;3.20;;;2.13;;
26908;SDS011;14477;51.038;4.588;2023-09-12T00:56:47;4.17;;;2.27;;
26908;SDS011;14477;51.038;4.588;2023-09-12T00:59:13;3.97;;;2.15;;
26908;SDS011;14477;51.038;4.588;2023-09-12T01:01:41;3.22;;;2.22;;
26908;SDS011;14477;51.038;4.588;2023-09-12T01:04:11;3.65;;;2.35;;
26908;SDS011;14477;51.038;4.588;2023-09-12T01:06:37;3.07;;;2.10;;
26908;SDS011;14477;51.038;4.588;2023-09-12T01:09:03;3.05;;;2.22;;
26908;SDS011;14477;51.038;4.588;2023-09-12T01:11:29;3.22;;;2.25;;
26908;SDS011;14477;51.038;4.588;2023-09-12T01:13:56;3.85;;;2.50;;
26908;SDS011;14477;51.038;4.588;2023-09-12T01:16:22;3.60;;;2.17;;
26908;SDS011;14477;51.038;4.588;2023-09-12T01:18:47;3.00;;;2.10;;
26908;SDS011;14477;51.038;4.588;2023-09-12T01:27:28;3.15;;;1.88;;
26908;SDS011;14477;51.038;4.588;2023-09-12T01:30:01;2.75;;;1.95;;
26908;SDS011;14477;51.038;4.588;2023-09-12T01:32:29;3.15;;;2.03;;
26908;SDS011;14477;51.038;4.588;2023-09-12T01:34:56;3.28;;;2.00;;
26908;SDS011;14477;51.038;4.588;2023-09-12T01:37:21;4.17;;;2.00;;
26908;SDS011;14477;51.038;4.588;2023-09-12T01:39:47;4.05;;;2.25;;
26908;SDS011;14477;51.038;4.588;2023-09-12T01:42:14;3.43;;;2.17;;
26908;SDS011;14477;51.038;4.588;2023-09-12T01:44:43;2.90;;;1.90;;
26908;SDS011;14477;51.038;4.588;2023-09-12T01:47:10;2.85;;;2.00;;
26908;SDS011;14477;51.038;4.588;2023-09-12T01:49:37;3.05;;;2.08;;
26908;SDS011;14477;51.038;4.588;2023-09-12T01:52:06;3.47;;;2.25;;
26908;SDS011;14477;51.038;4.588;2023-09-12T01:54:32;2.57;;;1.90;;
26908;SDS011;14477;51.038;4.588;2023-09-12T01:56:59;3.28;;;2.20;;
26908;SDS011;14477;51.038;4.588;2023-09-12T01:59:26;3.30;;;2.28;;
26908;SDS011;14477;51.038;4.588;2023-09-12T02:01:54;3.25;;;1.85;;
26908;SDS011;14477;51.038;4.588;2023-09-12T02:04:20;2.80;;;2.00;;
26908;SDS011;14477;51.038;4.588;2023-09-12T02:06:46;3.58;;;2.03;;
26908;SDS011;14477;51.038;4.588;2023-09-12T02:09:12;3.75;;;2.45;;
26908;SDS011;14477;51.038;4.588;2023-09-12T02:11:37;3.43;;;2.17;;
26908;SDS011;14477;51.038;4.588;2023-09-12T02:14:03;3.55;;;2.30;;
26908;SDS011;14477;51.038;4.588;2023-09-12T02:16:29;2.80;;;1.90;;
26908;SDS011;14477;51.038;4.588;2023-09-12T02:18:56;3.80;;;2.30;;
26908;SDS011;14477;51.038;4.588;2023-09-12T02:21:21;4.17;;;2.10;;
26908;SDS011;14477;51.038;4.588;2023-09-12T02:23:47;3.65;;;2.13;;
26908;SDS011;14477;51.038;4.588;2023-09-12T02:26:13;3.92;;;2.10;;
26908;SDS011;14477;51.038;4.588;2023-09-12T02:28:39;3.37;;;2.00;;
26908;SDS011;14477;51.038;4.588;2023-09-12T02:31:11;4.07;;;2.05;;
26908;SDS011;14477;51.038;4.588;2023-09-12T02:33:37;2.72;;;2.00;;
26908;SDS011;14477;51.038;4.588;2023-09-12T02:36:04;4.00;;;2.10;;
26908;SDS011;14477;51.038;4.588;2023-09-12T02:38:30;3.05;;;2.10;;
26908;SDS011;14477;51.038;4.588;2023-09-12T02:40:55;2.80;;;1.80;;
26908;SDS011;14477;51.038;4.588;2023-09-12T02:43:21;2.90;;;1.83;;
26908;SDS011;14477;51.038;4.588;2023-09-12T02:45:47;3.08;;;2.10;;
26908;SDS011;14477;51.038;4.588;2023-09-12T02:48:13;3.13;;;1.83;;
26908;SDS011;14477;51.038;4.588;2023-09-12T02:50:39;3.37;;;2.13;;
26908;SDS011;14477;51.038;4.588;2023-09-12T02:53:04;2.47;;;1.90;;
26908;SDS011;14477;51.038;4.588;2023-09-12T02:55:31;3.13;;;1.77;;
26908;SDS011;14477;51.038;4.588;2023-09-12T02:57:57;3.00;;;2.03;;
26908;SDS011;14477;51.038;4.588;2023-09-12T03:00:23;3.67;;;2.30;;
26908;SDS011;14477;51.038;4.588;2023-09-12T03:02:49;2.85;;;1.92;;
26908;SDS011;14477;51.038;4.588;2023-09-12T03:05:15;3.50;;;2.07;;
26908;SDS011;14477;51.038;4.588;2023-09-12T03:07:41;4.07;;;2.38;;
26908;SDS011;14477;51.038;4.588;2023-09-12T03:10:07;3.30;;;2.20;;
26908;SDS011;14477;51.038;4.588;2023-09-12T03:12:35;4.05;;;2.17;;
26908;SDS011;14477;51.038;4.588;2023-09-12T03:15:01;5.27;;;3.80;;
26908;SDS011;14477;51.038;4.588;2023-09-12T03:17:28;3.75;;;2.20;;
26908;SDS011;14477;51.038;4.588;2023-09-12T03:19:54;4.57;;;2.55;;
26908;SDS011;14477;51.038;4.588;2023-09-12T03:22:19;3.53;;;2.40;;
26908;SDS011;14477;51.038;4.588;2023-09-12T03:24:45;4.03;;;2.53;;
26908;SDS011;14477;51.038;4.588;2023-09-12T03:27:11;4.25;;;2.72;;
26908;SDS011;14477;51.038;4.588;2023-09-12T03:29:37;5.07;;;2.80;;
26908;SDS011;14477;51.038;4.588;2023-09-12T03:32:03;6.70;;;3.72;;
26908;SDS011;14477;51.038;4.588;2023-09-12T03:34:29;6.77;;;3.53;;
26908;SDS011;14477;51.038;4.588;2023-09-12T03:36:54;5.00;;;3.00;;
26908;SDS011;14477;51.038;4.588;2023-09-12T03:39:20;5.18;;;3.15;;
26908;SDS011;14477;51.038;4.588;2023-09-12T03:41:46;5.70;;;3.30;;
26908;SDS011;14477;51.038;4.588;2023-09-12T03:44:12;6.03;;;3.38;;
26908;SDS011;14477;51.038;4.588;2023-09-12T03:46:37;7.10;;;3.60;;
26908;SDS011;14477;51.038;4.588;2023-09-12T03:49:03;4.45;;;2.92;;
26908;SDS011;14477;51.038;4.588;2023-09-12T03:51:29;6.63;;;3.47;;
26908;SDS011;14477;51.038;4.588;2023-09-12T03:53:54;6.93;;;3.78;;
26908;SDS011;14477;51.038;4.588;2023-09-12T03:56:20;5.90;;;3.23;;
26908;SDS011;14477;51.038;4.588;2023-09-12T03:58:46;6.55;;;3.53;;
26908;SDS011;14477;51.038;4.588;2023-09-12T04:01:12;6.93;;;4.10;;
26908;SDS011;14477;51.038;4.588;2023-09-12T04:03:37;6.60;;;4.23;;
26908;SDS011;14477;51.038;4.588;2023-09-12T04:06:03;6.57;;;3.75;;
26908;SDS011;14477;51.038;4.588;2023-09-12T04:08:29;7.63;;;4.43;;
26908;SDS011;14477;51.038;4.588;2023-09-12T04:10:55;8.40;;;4.50;;
26908;SDS011;14477;51.038;4.588;2023-09-12T04:13:21;10.03;;;4.53;;
26908;SDS011;14477;51.038;4.588;2023-09-12T04:15:46;10.13;;;4.72;;
26908;SDS011;14477;51.038;4.588;2023-09-12T04:18:12;9.17;;;4.83;;
26908;SDS011;14477;51.038;4.588;2023-09-12T04:20:38;7.97;;;4.30;;
26908;SDS011;14477;51.038;4.588;2023-09-12T04:23:04;7.25;;;4.32;;
26908;SDS011;14477;51.038;4.588;2023-09-12T04:25:31;6.70;;;3.97;;
26908;SDS011;14477;51.038;4.588;2023-09-12T04:27:56;6.80;;;4.00;;
26908;SDS011;14477;51.038;4.588;2023-09-12T04:30:22;6.35;;;3.97;;
26908;SDS011;14477;51.038;4.588;2023-09-12T04:32:48;6.85;;;4.10;;
26908;SDS011;14477;51.038;4.588;2023-09-12T04:35:14;7.40;;;3.97;;
26908;SDS011;14477;51.038;4.588;2023-09-12T04:37:40;6.77;;;3.63;;
26908;SDS011;14477;51.038;4.588;2023-09-12T04:40:06;6.47;;;3.90;;
26908;SDS011;14477;51.038;4.588;2023-09-12T04:42:32;7.75;;;4.10;;
26908;SDS011;14477;51.038;4.588;2023-09-12T04:44:58;8.10;;;3.85;;
26908;SDS011;14477;51.038;4.588;2023-09-12T04:47:24;8.60;;;4.33;;
26908;SDS011;14477;51.038;4.588;2023-09-12T04:49:50;7.35;;;3.65;;
26908;SDS011;14477;51.038;4.588;2023-09-12T04:52:15;6.53;;;3.60;;
26908;SDS011;14477;51.038;4.588;2023-09-12T04:54:41;7.30;;;3.85;;
26908;SDS011;14477;51.038;4.588;2023-09-12T04:57:07;8.43;;;3.90;;
26908;SDS011;14477;51.038;4.588;2023-09-12T04:59:33;7.25;;;3.78;;
26908;SDS011;14477;51.038;4.588;2023-09-12T05:01:59;8.23;;;3.65;;
26908;SDS011;14477;51.038;4.588;2023-09-12T05:04:25;6.23;;;3.60;;
26908;SDS011;14477;51.038;4.588;2023-09-12T05:06:50;6.28;;;3.58;;
26908;SDS011;14477;51.038;4.588;2023-09-12T05:09:16;6.40;;;3.63;;
26908;SDS011;14477;51.038;4.588;2023-09-12T05:11:42;6.38;;;3.42;;
26908;SDS011;14477;51.038;4.588;2023-09-12T05:14:09;5.20;;;3.20;;
26908;SDS011;14477;51.038;4.588;2023-09-12T05:16:35;5.77;;;3.77;;
26908;SDS011;14477;51.038;4.588;2023-09-12T05:19:00;7.03;;;3.97;;
26908;SDS011;14477;51.038;4.588;2023-09-12T05:21:26;7.17;;;3.80;;
26908;SDS011;14477;51.038;4.588;2023-09-12T05:23:52;6.13;;;3.55;;
26908;SDS011;14477;51.038;4.588;2023-09-12T05:26:18;6.53;;;3.40;;
26908;SDS011;14477;51.038;4.588;2023-09-12T05:28:44;6.40;;;3.73;;
26908;SDS011;14477;51.038;4.588;2023-09-12T05:31:10;6.85;;;3.88;;
26908;SDS011;14477;51.038;4.588;2023-09-12T05:33:35;5.03;;;3.23;;
26908;SDS011;14477;51.038;4.588;2023-09-12T05:36:01;6.30;;;3.78;;
26908;SDS011;14477;51.038;4.588;2023-09-12T05:38:28;6.45;;;3.90;;
26908;SDS011;14477;51.038;4.588;2023-09-12T05:40:53;6.47;;;3.60;;
26908;SDS011;14477;51.038;4.588;2023-09-12T05:43:19;6.25;;;3.47;;
26908;SDS011;14477;51.038;4.588;2023-09-12T05:45:45;5.73;;;3.60;;
26908;SDS011;14477;51.038;4.588;2023-09-12T05:48:11;7.07;;;3.40;;
26908;SDS011;14477;51.038;4.588;2023-09-12T05:50:36;6.57;;;3.73;;
26908;SDS011;14477;51.038;4.588;2023-09-12T05:53:02;6.18;;;3.78;;
26908;SDS011;14477;51.038;4.588;2023-09-12T05:55:28;6.63;;;3.75;;
26908;SDS011;14477;51.038;4.588;2023-09-12T05:57:54;5.80;;;3.13;;
26908;SDS011;14477;51.038;4.588;2023-09-12T06:00:20;6.47;;;3.47;;
26908;SDS011;14477;51.038;4.588;2023-09-12T06:02:46;5.07;;;2.97;;
26908;SDS011;14477;51.038;4.588;2023-09-12T06:05:13;6.30;;;3.30;;
26908;SDS011;14477;51.038;4.588;2023-09-12T06:07:42;5.85;;;3.17;;
26908;SDS011;14477;51.038;4.588;2023-09-12T06:10:08;4.82;;;3.17;;
26908;SDS011;14477;51.038;4.588;2023-09-12T06:12:34;6.28;;;3.58;;
26908;SDS011;14477;51.038;4.588;2023-09-12T06:15:01;6.30;;;3.47;;
26908;SDS011;14477;51.038;4.588;2023-09-12T06:17:30;5.70;;;3.40;;
26908;SDS011;14477;51.038;4.588;2023-09-12T06:19:56;6.30;;;3.90;;
26908;SDS011;14477;51.038;4.588;2023-09-12T06:22:22;6.53;;;3.45;;
26908;SDS011;14477;51.038;4.588;2023-09-12T06:24:49;6.97;;;3.90;;
26908;SDS011;14477;51.038;4.588;2023-09-12T06:27:15;6.18;;;3.97;;
26908;SDS011;14477;51.038;4.588;2023-09-12T06:29:47;6.50;;;4.13;;
26908;SDS011;14477;51.038;4.588;2023-09-12T06:32:13;6.18;;;3.88;;
26908;SDS011;14477;51.038;4.588;2023-09-12T06:34:40;6.93;;;3.83;;
26908;SDS011;14477;51.038;4.588;2023-09-12T06:37:06;6.07;;;3.57;;
26908;SDS011;14477;51.038;4.588;2023-09-12T06:39:32;5.65;;;3.53;;
26908;SDS011;14477;51.038;4.588;2023-09-12T06:41:58;6.68;;;3.85;;
26908;SDS011;14477;51.038;4.588;2023-09-12T06:44:24;7.10;;;4.20;;
26908;SDS011;14477;51.038;4.588;2023-09-12T06:46:49;8.65;;;4.15;;
26908;SDS011;14477;51.038;4.588;2023-09-12T06:49:15;9.13;;;4.50;;
26908;SDS011;14477;51.038;4.588;2023-09-12T06:51:41;8.93;;;4.57;;
26908;SDS011;14477;51.038;4.588;2023-09-12T06:54:07;7.43;;;4.57;;
26908;SDS011;14477;51.038;4.588;2023-09-12T06:56:33;8.57;;;4.77;;
26908;SDS011;14477;51.038;4.588;2023-09-12T06:59:02;7.63;;;4.50;;
26908;SDS011;14477;51.038;4.588;2023-09-12T07:01:29;8.57;;;4.93;;
26908;SDS011;14477;51.038;4.588;2023-09-12T07:03:55;8.07;;;4.70;;
26908;SDS011;14477;51.038;4.588;2023-09-12T07:06:21;8.90;;;5.13;;
26908;SDS011;14477;51.038;4.588;2023-09-12T07:08:48;8.38;;;4.95;;
26908;SDS011;14477;51.038;4.588;2023-09-12T07:11:14;8.48;;;4.90;;
26908;SDS011;14477;51.038;4.588;2023-09-12T07:13:39;9.98;;;5.30;;
26908;SDS011;14477;51.038;4.588;2023-09-12T07:16:05;7.70;;;4.63;;
26908;SDS011;14477;51.038;4.588;2023-09-12T07:18:31;9.70;;;5.47;;
26908;SDS011;14477;51.038;4.588;2023-09-12T07:21:01;9.03;;;5.47;;
26908;SDS011;14477;51.038;4.588;2023-09-12T07:23:28;8.90;;;5.05;;
26908;SDS011;14477;51.038;4.588;2023-09-12T07:25:54;9.90;;;5.47;;
26908;SDS011;14477;51.038;4.588;2023-09-12T07:28:23;10.48;;;5.93;;
26908;SDS011;14477;51.038;4.588;2023-09-12T07:30:49;11.02;;;6.07;;
26908;SDS011;14477;51.038;4.588;2023-09-12T07:33:15;9.23;;;5.40;;
26908;SDS011;14477;51.038;4.588;2023-09-12T07:35:41;11.23;;;6.03;;
26908;SDS011;14477;51.038;4.588;2023-09-12T07:38:06;11.07;;;6.00;;
26908;SDS011;14477;51.038;4.588;2023-09-12T07:40:32;10.93;;;6.10;;
26908;SDS011;14477;51.038;4.588;2023-09-12T07:42:58;10.83;;;5.60;;
26908;SDS011;14477;51.038;4.588;2023-09-12T07:45:23;11.88;;;6.15;;
26908;SDS011;14477;51.038;4.588;2023-09-12T07:47:49;12.07;;;6.07;;
26908;SDS011;14477;51.038;4.588;2023-09-12T07:50:15;11.88;;;5.75;;
26908;SDS011;14477;51.038;4.588;2023-09-12T07:52:41;11.98;;;6.38;;
26908;SDS011;14477;51.038;4.588;2023-09-12T07:55:07;9.67;;;5.40;;
26908;SDS011;14477;51.038;4.588;2023-09-12T07:57:34;11.27;;;6.00;;
26908;SDS011;14477;51.038;4.588;2023-09-12T08:00:01;12.20;;;6.28;;
26908;SDS011;14477;51.038;4.588;2023-09-12T08:02:33;11.55;;;5.97;;
26908;SDS011;14477;51.038;4.588;2023-09-12T08:04:58;11.43;;;5.93;;
26908;SDS011;14477;51.038;4.588;2023-09-12T08:07:24;11.75;;;5.93;;
26908;SDS011;14477;51.038;4.588;2023-09-12T08:09:54;10.13;;;5.95;;
26908;SDS011;14477;51.038;4.588;2023-09-12T08:12:25;11.20;;;5.90;;
26908;SDS011;14477;51.038;4.588;2023-09-12T08:14:52;11.55;;;5.82;;
26908;SDS011;14477;51.038;4.588;2023-09-12T08:17:18;8.70;;;5.22;;
26908;SDS011;14477;51.038;4.588;2023-09-12T08:19:44;10.40;;;5.90;;
26908;SDS011;14477;51.038;4.588;2023-09-12T08:22:10;10.37;;;5.47;;
26908;SDS011;14477;51.038;4.588;2023-09-12T08:24:37;10.15;;;5.47;;
26908;SDS011;14477;51.038;4.588;2023-09-12T08:27:04;10.23;;;5.45;;
26908;SDS011;14477;51.038;4.588;2023-09-12T08:29:31;9.18;;;5.32;;
26908;SDS011;14477;51.038;4.588;2023-09-12T08:31:58;8.93;;;5.18;;
26908;SDS011;14477;51.038;4.588;2023-09-12T08:34:24;9.20;;;5.50;;
26908;SDS011;14477;51.038;4.588;2023-09-12T08:36:50;9.20;;;5.07;;
26908;SDS011;14477;51.038;4.588;2023-09-12T08:39:17;9.45;;;5.00;;
26908;SDS011;14477;51.038;4.588;2023-09-12T08:41:49;8.52;;;5.18;;
26908;SDS011;14477;51.038;4.588;2023-09-12T08:44:15;9.23;;;5.00;;
26908;SDS011;14477;51.038;4.588;2023-09-12T08:46:41;8.05;;;4.85;;
26908;SDS011;14477;51.038;4.588;2023-09-12T08:49:08;8.23;;;4.95;;
26908;SDS011;14477;51.038;4.588;2023-09-12T08:51:36;7.20;;;4.47;;
26908;SDS011;14477;51.038;4.588;2023-09-12T08:54:03;9.90;;;5.13;;
26908;SDS011;14477;51.038;4.588;2023-09-12T08:56:35;7.37;;;4.73;;
26908;SDS011;14477;51.038;4.588;2023-09-12T08:59:04;6.78;;;4.47;;
26908;SDS011;14477;51.038;4.588;2023-09-12T09:01:31;8.02;;;5.07;;
26908;SDS011;14477;51.038;4.588;2023-09-12T09:03:58;7.13;;;4.53;;
26908;SDS011;14477;51.038;4.588;2023-09-12T09:06:24;7.63;;;5.00;;
26908;SDS011;14477;51.038;4.588;2023-09-12T09:08:51;7.47;;;4.45;;
26908;SDS011;14477;51.038;4.588;2023-09-12T09:11:17;7.80;;;5.05;;
26908;SDS011;14477;51.038;4.588;2023-09-12T09:13:43;7.20;;;5.38;;
26908;SDS011;14477;51.038;4.588;2023-09-12T09:16:12;7.50;;;5.27;;
26908;SDS011;14477;51.038;4.588;2023-09-12T09:18:59;9.38;;;5.78;;
26908;SDS011;14477;51.038;4.588;2023-09-12T09:21:26;9.32;;;6.20;;
26908;SDS011;14477;51.038;4.588;2023-09-12T09:23:55;8.35;;;5.75;;
26908;SDS011;14477;51.038;4.588;2023-09-12T09:26:22;8.40;;;5.43;;
26908;SDS011;14477;51.038;4.588;2023-09-12T09:29:06;8.60;;;5.70;;
26908;SDS011;14477;51.038;4.588;2023-09-12T09:31:34;8.45;;;5.38;;
26908;SDS011;14477;51.038;4.588;2023-09-12T09:34:00;6.95;;;5.20;;
26908;SDS011;14477;51.038;4.588;2023-09-12T09:36:26;7.50;;;5.00;;
26908;SDS011;14477;51.038;4.588;2023-09-12T09:38:52;8.27;;;5.60;;
26908;SDS011;14477;51.038;4.588;2023-09-12T09:41:20;6.72;;;4.93;;
26908;SDS011;14477;51.038;4.588;2023-09-12T09:43:49;8.05;;;5.40;;
26908;SDS011;14477;51.038;4.588;2023-09-12T09:46:18;7.72;;;4.93;;
26908;SDS011;14477;51.038;4.588;2023-09-12T09:48:51;7.22;;;4.80;;
26908;SDS011;14477;51.038;4.588;2023-09-12T09:51:18;6.70;;;4.60;;
26908;SDS011;14477;51.038;4.588;2023-09-12T09:53:44;6.78;;;4.57;;
26908;SDS011;14477;51.038;4.588;2023-09-12T09:56:16;6.43;;;4.78;;
26908;SDS011;14477;51.038;4.588;2023-09-12T09:58:51;6.53;;;4.65;;
26908;SDS011;14477;51.038;4.588;2023-09-12T10:01:29;6.50;;;4.50;;
26908;SDS011;14477;51.038;4.588;2023-09-12T10:03:59;5.27;;;4.20;;
26908;SDS011;14477;51.038;4.588;2023-09-12T10:06:26;6.53;;;4.15;;
26908;SDS011;14477;51.038;4.588;2023-09-12T10:08:54;5.30;;;4.28;;
26908;SDS011;14477;51.038;4.588;2023-09-12T10:11:22;6.35;;;3.85;;
26908;SDS011;14477;51.038;4.588;2023-09-12T10:13:52;5.18;;;3.88;;
26908;SDS011;14477;51.038;4.588;2023-09-12T10:16:23;5.87;;;3.73;;
26908;SDS011;14477;51.038;4.588;2023-09-12T10:18:58;6.68;;;4.78;;
26908;SDS011;14477;51.038;4.588;2023-09-12T10:21:30;6.68;;;4.32;;
26908;SDS011;14477;51.038;4.588;2023-09-12T10:23:58;5.95;;;4.25;;
26908;SDS011;14477;51.038;4.588;2023-09-12T10:26:25;5.07;;;3.80;;
26908;SDS011;14477;51.038;4.588;2023-09-12T10:28:51;5.07;;;3.60;;
26908;SDS011;14477;51.038;4.588;2023-09-12T10:31:17;5.10;;;3.58;;
26908;SDS011;14477;51.038;4.588;2023-09-12T10:33:44;4.78;;;3.42;;
26908;SDS011;14477;51.038;4.588;2023-09-12T10:36:11;4.43;;;3.40;;
26908;SDS011;14477;51.038;4.588;2023-09-12T10:38:42;5.25;;;3.55;;
26908;SDS011;14477;51.038;4.588;2023-09-12T10:41:12;4.80;;;2.70;;
26908;SDS011;14477;51.038;4.588;2023-09-12T10:43:39;4.47;;;2.90;;
26908;SDS011;14477;51.038;4.588;2023-09-12T10:46:06;4.20;;;2.80;;
26908;SDS011;14477;51.038;4.588;2023-09-12T10:48:34;4.43;;;3.50;;
26908;SDS011;14477;51.038;4.588;2023-09-12T10:51:05;5.13;;;3.05;;
26908;SDS011;14477;51.038;4.588;2023-09-12T10:53:33;5.37;;;3.07;;
26908;SDS011;14477;51.038;4.588;2023-09-12T10:55:59;5.13;;;2.97;;
26908;SDS011;14477;51.038;4.588;2023-09-12T10:58:26;5.03;;;3.10;;
26908;SDS011;14477;51.038;4.588;2023-09-12T11:03:50;5.43;;;3.45;;
26908;SDS011;14477;51.038;4.588;2023-09-12T11:06:21;4.97;;;3.63;;
26908;SDS011;14477;51.038;4.588;2023-09-12T11:11:47;5.90;;;3.65;;
26908;SDS011;14477;51.038;4.588;2023-09-12T11:14:14;5.47;;;3.70;;
26908;SDS011;14477;51.038;4.588;2023-09-12T11:16:42;5.20;;;3.70;;
26908;SDS011;14477;51.038;4.588;2023-09-12T11:19:12;5.87;;;4.03;;
26908;SDS011;14477;51.038;4.588;2023-09-12T11:21:48;6.50;;;3.78;;
26908;SDS011;14477;51.038;4.588;2023-09-12T11:24:16;4.90;;;3.67;;
26908;SDS011;14477;51.038;4.588;2023-09-12T11:27:01;6.82;;;4.15;;
26908;SDS011;14477;51.038;4.588;2023-09-12T11:29:37;5.47;;;3.75;;
26908;SDS011;14477;51.038;4.588;2023-09-12T11:32:05;4.80;;;3.57;;
26908;SDS011;14477;51.038;4.588;2023-09-12T11:34:38;5.03;;;3.75;;
26908;SDS011;14477;51.038;4.588;2023-09-12T11:37:07;6.43;;;4.10;;
26908;SDS011;14477;51.038;4.588;2023-09-12T11:39:34;5.22;;;4.13;;
26908;SDS011;14477;51.038;4.588;2023-09-12T11:42:01;6.00;;;4.10;;
26908;SDS011;14477;51.038;4.588;2023-09-12T11:44:29;5.23;;;4.30;;
26908;SDS011;14477;51.038;4.588;2023-09-12T11:46:56;5.88;;;4.10;;
26908;SDS011;14477;51.038;4.588;2023-09-12T11:49:28;5.70;;;3.97;;
26908;SDS011;14477;51.038;4.588;2023-09-12T11:52:02;6.25;;;4.70;;
26908;SDS011;14477;51.038;4.588;2023-09-12T11:54:29;5.63;;;4.60;;
26908;SDS011;14477;51.038;4.588;2023-09-12T11:56:57;5.20;;;4.57;;
26908;SDS011;14477;51.038;4.588;2023-09-12T11:59:25;5.75;;;4.70;;
26908;SDS011;14477;51.038;4.588;2023-09-12T12:01:51;5.35;;;4.20;;
26908;SDS011;14477;51.038;4.588;2023-09-12T12:04:21;4.60;;;4.10;;
26908;SDS011;14477;51.038;4.588;2023-09-12T12:06:49;4.30;;;3.85;;
26908;SDS011;14477;51.038;4.588;2023-09-12T12:09:16;4.43;;;4.00;;
26908;SDS011;14477;51.038;4.588;2023-09-12T12:11:46;5.10;;;4.60;;
26908;SDS011;14477;51.038;4.588;2023-09-12T12:14:16;4.85;;;4.35;;
26908;SDS011;14477;51.038;4.588;2023-09-12T12:16:44;5.07;;;4.57;;
26908;SDS011;14477;51.038;4.588;2023-09-12T12:19:11;4.60;;;4.10;;
26908;SDS011;14477;51.038;4.588;2023-09-12T12:21:42;4.30;;;3.90;;
26908;SDS011;14477;51.038;4.588;2023-09-12T12:24:13;5.30;;;4.13;;
26908;SDS011;14477;51.038;4.588;2023-09-12T12:26:40;5.55;;;4.22;;
26908;SDS011;14477;51.038;4.588;2023-09-12T12:29:08;4.97;;;4.00;;
26908;SDS011;14477;51.038;4.588;2023-09-12T12:31:35;4.95;;;3.97;;
26908;SDS011;14477;51.038;4.588;2023-09-12T12:34:02;4.67;;;3.90;;
26908;SDS011;14477;51.038;4.588;2023-09-12T12:36:28;5.28;;;3.35;;
26908;SDS011;14477;51.038;4.588;2023-09-12T12:38:54;3.40;;;2.95;;
26908;SDS011;14477;51.038;4.588;2023-09-12T12:43:55;4.20;;;3.30;;
26908;SDS011;14477;51.038;4.588;2023-09-12T12:46:25;4.18;;;3.08;;
26908;SDS011;14477;51.038;4.588;2023-09-12T12:48:52;3.88;;;3.38;;
26908;SDS011;14477;51.038;4.588;2023-09-12T12:51:25;4.53;;;3.55;;
26908;SDS011;14477;51.038;4.588;2023-09-12T12:53:52;4.97;;;3.30;;
26908;SDS011;14477;51.038;4.588;2023-09-12T12:56:19;4.17;;;3.30;;
26908;SDS011;14477;51.038;4.588;2023-09-12T12:58:51;3.92;;;3.33;;
26908;SDS011;14477;51.038;4.588;2023-09-12T13:01:20;4.03;;;3.28;;
26908;SDS011;14477;51.038;4.588;2023-09-12T13:03:46;4.82;;;3.17;;
26908;SDS011;14477;51.038;4.588;2023-09-12T13:06:14;4.90;;;2.90;;
26908;SDS011;14477;51.038;4.588;2023-09-12T13:08:40;4.43;;;3.40;;
26908;SDS011;14477;51.038;4.588;2023-09-12T13:11:07;4.15;;;3.25;;
26908;SDS011;14477;51.038;4.588;2023-09-12T13:13:34;5.00;;;3.22;;
26908;SDS011;14477;51.038;4.588;2023-09-12T13:16:01;4.47;;;2.77;;
26908;SDS011;14477;51.038;4.588;2023-09-12T13:18:30;4.40;;;2.92;;
26908;SDS011;14477;51.038;4.588;2023-09-12T13:20:57;4.57;;;2.97;;
26908;SDS011;14477;51.038;4.588;2023-09-12T13:23:22;4.28;;;2.78;;
26908;SDS011;14477;51.038;4.588;2023-09-12T13:25:49;5.00;;;2.87;;
26908;SDS011;14477;51.038;4.588;2023-09-12T13:28:16;4.57;;;3.10;;
26908;SDS011;14477;51.038;4.588;2023-09-12T13:30:42;4.88;;;3.15;;
26908;SDS011;14477;51.038;4.588;2023-09-12T13:33:08;3.83;;;2.93;;
26908;SDS011;14477;51.038;4.588;2023-09-12T13:35:33;4.53;;;3.00;;
26908;SDS011;14477;51.038;4.588;2023-09-12T13:37:59;4.15;;;2.92;;
26908;SDS011;14477;51.038;4.588;2023-09-12T13:40:25;4.60;;;2.90;;
26908;SDS011;14477;51.038;4.588;2023-09-12T13:42:52;4.25;;;3.10;;
26908;SDS011;14477;51.038;4.588;2023-09-12T13:45:18;3.75;;;2.83;;
26908;SDS011;14477;51.038;4.588;2023-09-12T13:47:44;4.20;;;2.83;;
26908;SDS011;14477;51.038;4.588;2023-09-12T13:50:10;4.07;;;2.80;;
26908;SDS011;14477;51.038;4.588;2023-09-12T13:52:35;4.07;;;3.10;;
26908;SDS011;14477;51.038;4.588;2023-09-12T13:55:01;4.32;;;2.90;;
26908;SDS011;14477;51.038;4.588;2023-09-12T13:57:28;3.63;;;2.55;;
26908;SDS011;14477;51.038;4.588;2023-09-12T13:59:54;4.23;;;2.87;;
26908;SDS011;14477;51.038;4.588;2023-09-12T14:02:20;4.07;;;3.00;;
26908;SDS011;14477;51.038;4.588;2023-09-12T14:04:46;4.20;;;3.05;;
26908;SDS011;14477;51.038;4.588;2023-09-12T14:07:12;4.07;;;2.67;;
26908;SDS011;14477;51.038;4.588;2023-09-12T14:09:38;4.03;;;3.00;;
26908;SDS011;14477;51.038;4.588;2023-09-12T14:12:04;4.65;;;2.90;;
26908;SDS011;14477;51.038;4.588;2023-09-12T14:14:31;3.40;;;2.80;;
26908;SDS011;14477;51.038;4.588;2023-09-12T14:16:57;4.50;;;2.80;;
26908;SDS011;14477;51.038;4.588;2023-09-12T14:19:22;3.20;;;2.70;;
26908;SDS011;14477;51.038;4.588;2023-09-12T14:21:48;4.20;;;2.70;;
26908;SDS011;14477;51.038;4.588;2023-09-12T14:24:14;3.75;;;2.65;;
26908;SDS011;14477;51.038;4.588;2023-09-12T14:26:40;3.97;;;2.60;;
26908;SDS011;14477;51.038;4.588;2023-09-12T14:29:05;3.20;;;2.45;;
26908;SDS011;14477;51.038;4.588;2023-09-12T14:31:31;3.03;;;2.25;;
26908;SDS011;14477;51.038;4.588;2023-09-12T14:33:57;3.93;;;2.20;;
26908;SDS011;14477;51.038;4.588;2023-09-12T14:36:23;3.65;;;2.30;;
26908;SDS011;14477;51.038;4.588;2023-09-12T14:38:48;3.63;;;2.30;;
26908;SDS011;14477;51.038;4.588;2023-09-12T14:41:14;3.75;;;2.30;;
26908;SDS011;14477;51.038;4.588;2023-09-12T14:43:40;3.30;;;2.60;;
26908;SDS011;14477;51.038;4.588;2023-09-12T14:46:06;3.55;;;2.40;;
26908;SDS011;14477;51.038;4.588;2023-09-12T14:48:33;4.05;;;2.20;;
26908;SDS011;14477;51.038;4.588;2023-09-12T14:51:01;3.30;;;2.30;;
26908;SDS011;14477;51.038;4.588;2023-09-12T14:53:27;3.20;;;2.30;;
26908;SDS011;14477;51.038;4.588;2023-09-12T14:55:53;3.53;;;2.20;;
26908;SDS011;14477;51.038;4.588;2023-09-12T14:58:19;3.72;;;1.95;;
26908;SDS011;14477;51.038;4.588;2023-09-12T15:00:44;3.43;;;2.20;;